• Join FlightAware (Why Join?)
  • Login
  • US Flag 
12:22AM EDT


 

Airport Tracker/Info


-or-


 

Live Flight TrackerFlight Track Log ✈ NKS562 ✈ 30-Apr-2013 ✈ KLAS - KDEN

Flight Track Log - Related Links

Times and Time Zones

All times are in EDT time to prevent confusion due to time zone crossing. See the NKS562 flight status page for this flight to view local times or setup timezone preferences in your user account.

Time Position Orientation Groundspeed Altitude Reporting Facility
EDT Latitude Longitude Course Direction KTS MPH feet Rate Location/Type
11:21AM 36.0760 -115.1520 270° West 162 186 2,600  Level FlightAware
11:22AM 36.0770 -115.1780 273° West 158 182 3,900 2,220 Climbing FlightAware
11:22AM 36.0770 -115.1920 270° West 166 191 4,300 1,500 Climbing FlightAware
11:22AM 36.0770 -115.2170 270° West 190 219 4,900 1,200 Climbing FlightAware
11:23AM 36.0770 -115.2540 270° West 235 270 5,400 1,200 Climbing FlightAware
11:23AM 36.0800 -115.2670 286° West 245 282 5,700 2,640 Climbing FlightAware
11:23AM 36.0920 -115.2840 311° West 246 283 6,500 3,180 Climbing FlightAware
11:24AM 36.1070 -115.2910 339° North 242 278 7,300 2,880 Climbing FlightAware
11:24AM 36.1290 -115.2960 350° North 250 288 8,200 2,520 Climbing FlightAware
11:24AM 36.1570 -115.2820 22° Northeast 272 313 9,200 2,700 Climbing FlightAware
11:24AM 36.1660 -115.2690 49° Northeast 274 315 9,800 3,120 Climbing FlightAware
11:25AM 36.1750 -115.2500 60° Northeast 278 320 10,500 1,800 Climbing FlightAware
11:25AM 36.1960 -115.1750 71° East 333 383 11,600 1,500 Climbing FlightAware
11:26AM 36.1970 -115.1060 89° East 366 421 12,500 2,100 Climbing FlightAware
11:27AM 36.1980 -115.0080 89° East 383 441 14,400 2,280 Climbing FlightAware
11:28AM 36.1990 -114.9080 89° East 402 463 16,000 2,280 Climbing FlightAware
11:28AM 36.2000 -114.8160 89° East 406 467 17,700 2,460 Climbing FlightAware
11:29AM 36.2010 -114.7220 89° East 417 480 19,300 2,280 Climbing FlightAware
11:30AM 36.1990 -114.6140 91° East 425 489 21,000 2,040 Climbing FlightAware
11:30AM 36.1980 -114.5120 91° East 436 502 22,200 1,740 Climbing FlightAware
11:31AM 36.1960 -114.4020 91° East 449 517 23,500 1,740 Climbing FlightAware
11:32AM 36.1950 -114.2990 91° East 454 522 24,700 1,680 Climbing FlightAware
11:32AM 36.2000 -114.1950 87° East 460 529 25,800 1,680 Climbing FlightAware
11:33AM 36.2150 -114.0730 81° East 467 537 27,100 1,620 Climbing FlightAware
11:34AM 36.2270 -113.9680 82° East 472 543 28,100 1,500 Climbing FlightAware
11:35AM 36.2410 -113.8500 82° East 476 548 29,300 1,440 Climbing FlightAware
11:35AM 36.2530 -113.7440 82° East 480 552 30,200 1,380 Climbing FlightAware
11:36AM 36.2660 -113.6310 82° East 480 552 31,200 1,440 Climbing FlightAware
11:37AM 36.2810 -113.5060 81° East 480 552 32,300 1,380 Climbing FlightAware
11:37AM 36.2930 -113.3970 82° East 481 554 33,200 1,320 Climbing FlightAware
11:38AM 36.3060 -113.2780 82° East 479 551 34,200 1,320 Climbing FlightAware
11:39AM 36.3310 -113.1730 74° East 473 544 35,100 1,200 Climbing FlightAware
11:39AM 36.3740 -113.0620 64° Northeast 474 545 35,900 1,260 Climbing FlightAware
11:40AM 36.4080 -112.9670 66° East 466 536 36,900 720 Climbing FlightAware
11:41AM 36.4480 -112.8590 65° Northeast 462 532 37,000 60 Climbing FlightAware
11:42AM 36.4840 -112.7620 65° Northeast 462 532 37,000  Level FlightAware
11:42AM 36.5200 -112.6640 65° Northeast 465 535 37,000  Level FlightAware
11:43AM 36.5570 -112.5640 65° Northeast 469 540 37,000 60 Level FlightAware
11:44AM 36.5980 -112.4520 65° Northeast 472 543 37,100 60 Climbing FlightAware
11:45AM 36.6440 -112.3260 66° East 469 540 37,100  Level FlightAware
11:45AM 36.6750 -112.2430 65° Northeast 469 540 37,100  Level FlightAware
11:46AM 36.7060 -112.1590 65° Northeast 469 540 37,100  Level FlightAware
11:47AM 36.7450 -112.0550 65° Northeast 469 540 37,100  Level FlightAware
11:47AM 36.7760 -111.9710 65° Northeast 469 540 37,100  Level FlightAware
11:48AM 36.8080 -111.8880 64° Northeast 469 540 37,100  Level FlightAware
11:49AM 36.8390 -111.8040 65° Northeast 469 540 37,100  Level FlightAware
11:49AM 36.8700 -111.7210 65° Northeast 469 540 37,100  Level FlightAware
11:50AM 36.9090 -111.6160 65° Northeast 469 540 37,100  Level FlightAware
11:51AM 36.9400 -111.5330 65° Northeast 469 540 37,100  Level FlightAware
11:52AM 36.9710 -111.4490 65° Northeast 469 540 37,100  Level FlightAware
11:52AM 37.0020 -111.3650 65° Northeast 469 540 37,100  Level FlightAware
11:53AM 37.0340 -111.2820 64° Northeast 469 540 37,100  Level FlightAware
11:54AM 37.0650 -111.1980 65° Northeast 469 540 37,100 -120 Level FlightAware
11:54AM 37.1403 -110.9250 65° Northeast 464 534 37,000 -120 Descending Denver Center
11:55AM 37.1908 -110.7769 67° East 465 535 37,000  Level Denver Center
11:56AM 37.2425 -110.6278 66° East 467 537 37,100  Climbing Denver Center
11:57AM 37.3042 -110.4483 67° East 468 539 37,000 -60 Descending Denver Center
11:58AM 37.3547 -110.3003 67° East 463 533 37,000  Level Denver Center
11:59AM 37.4075 -110.1428 67° East 464 534 37,000  Level Denver Center
12:00PM 37.4564 -110.0008 67° East 463 533 37,000  Level Denver Center
12:01PM 37.5128 -109.8331 67° East 465 535 37,000  Level Denver Center
12:02PM 37.5603 -109.6875 68° East 468 539 37,000  Level Denver Center
12:03PM 37.6167 -109.5169 67° East 471 542 37,000  Level Denver Center
12:04PM 37.6661 -109.3703 67° East 474 545 37,000  Level Denver Center
12:05PM 37.7228 -109.1964 68° East 479 551 37,000  Level Denver Center
12:06PM 37.7708 -109.0486 68° East 475 547 37,000  Level Denver Center
12:08PM 37.8217 -108.9017 66° East 476 548 37,000  Level Denver Center
12:09PM 37.9006 -108.7458 57° Northeast 473 544 37,000  Level Denver Center
12:15PM 38.3180 -107.8780 57° Northeast 475 547 37,000 -60 Level FlightAware
12:15PM 38.3670 -107.7740 59° Northeast 475 547 36,900  Descending FlightAware
12:16PM 38.4170 -107.6680 59° Northeast 475 547 37,000 60 Climbing FlightAware
12:17PM 38.4640 -107.5680 59° Northeast 475 547 37,000  Level FlightAware
12:17PM 38.5080 -107.4720 60° Northeast 471 542 37,000 -240 Level FlightAware
12:18PM 38.5516 -107.3730 61° Northeast 472 543 36,700 -720 Descending FlightAware ADS-B
12:19PM 38.5955 -107.2750 60° Northeast 471 542 36,100 -540 Descending FlightAware ADS-B
12:19PM 38.6290 -107.2000 60° Northeast 475 547 36,000 -540 Descending FlightAware
12:20PM 38.6750 -107.0960 60° Northeast 480 552 35,400 -900 Descending FlightAware
12:21PM 38.7180 -106.9990 60° Northeast 482 555 34,800 -960 Descending FlightAware
12:22PM 38.7810 -106.8570 60° Northeast 493 567 33,900 -1,140 Descending FlightAware
12:22PM 38.8081 -106.7950 61° Northeast 495 570 33,400 -1,200 Descending FlightAware ADS-B
12:22PM 38.8420 -106.7180 61° Northeast 488 562 32,900 -1,020 Descending FlightAware ADS-B
12:23PM 38.8777 -106.6390 60° Northeast 486 559 32,400 -960 Descending FlightAware ADS-B
12:24PM 38.9216 -106.5440 59° Northeast 486 559 31,800 -1,080 Descending FlightAware ADS-B
12:24PM 38.9556 -106.4700 59° Northeast 475 547 31,200 -1,440 Descending FlightAware ADS-B
12:25PM 38.9901 -106.3930 60° Northeast 469 540 30,300 -1,740 Descending FlightAware ADS-B
12:25PM 39.0210 -106.3260 59° Northeast 467 537 29,400 -2,040 Descending FlightAware
12:26PM 39.0458 -106.2690 61° Northeast 469 540 28,600 -2,160 Descending FlightAware ADS-B
12:26PM 39.0780 -106.1980 60° Northeast 457 526 27,600 -1,980 Descending FlightAware ADS-B
12:27PM 39.1096 -106.1280 60° Northeast 444 511 26,600 -1,860 Descending FlightAware ADS-B
12:27PM 39.1390 -106.0620 60° Northeast 438 504 25,800 -1,860 Descending FlightAware ADS-B
12:28PM 39.1693 -105.9930 60° Northeast 443 510 24,800 -1,980 Descending FlightAware ADS-B
12:28PM 39.2015 -105.9210 60° Northeast 431 496 23,800 -1,860 Descending FlightAware ADS-B
12:29PM 39.2312 -105.8550 60° Northeast 427 491 22,900 -1,920 Descending FlightAware ADS-B
12:29PM 39.2605 -105.7890 60° Northeast 427 491 21,900 -1,920 Descending FlightAware ADS-B
12:30PM 39.2899 -105.7220 60° Northeast 419 482 21,000 -1,680 Descending FlightAware ADS-B
12:30PM 39.3187 -105.6570 60° Northeast 412 474 20,200 -1,800 Descending FlightAware ADS-B
12:31PM 39.3472 -105.5930 60° Northeast 409 471 19,200 -1,800 Descending FlightAware ADS-B
12:31PM 39.3695 -105.5410 61° Northeast 399 459 18,600 -1,440 Descending FlightAware ADS-B
12:31PM 39.3782 -105.5210 61° Northeast 394 453 18,400 -1,320 Descending FlightAware ADS-B
12:31PM 39.3805 -105.5130 70° East 391 450 18,300 -720 Descending FlightAware ADS-B
12:31PM 39.3830 -105.5020 74° East 391 450 18,300 -600 Level FlightAware ADS-B
12:31PM 39.3846 -105.4910 79° East 389 448 18,200 -480 Descending FlightAware ADS-B
12:32PM 39.3860 -105.4450 88° East 370 426 18,100 -960 Descending FlightAware ADS-B
12:32PM 39.3868 -105.3810 89° East 349 402 17,400 -1,680 Descending FlightAware ADS-B
12:33PM 39.3874 -105.3400 89° East 342 394 16,700 -2,340 Descending FlightAware ADS-B
12:33PM 39.3887 -105.2700 89° East 337 388 15,300 -1,860 Descending FlightAware ADS-B
12:34PM 39.3897 -105.2100 89° East 313 360 14,700 -900 Descending FlightAware ADS-B
12:34PM 39.3911 -105.1580 88° East 292 336 14,400 -780 Descending FlightAware ADS-B
12:34PM 39.3921 -105.1250 88° East 286 329 14,100 -1,320 Descending FlightAware ADS-B
12:35PM 39.3935 -105.0850 87° East 288 331 13,500 -1,140 Descending FlightAware ADS-B
12:35PM 39.3956 -105.0350 87° East 283 326 13,100 -420 Descending FlightAware ADS-B
12:36PM 39.3982 -104.9850 86° East 279 321 13,100  Level FlightAware ADS-B
12:36PM 39.4011 -104.9340 86° East 281 323 13,100  Level FlightAware ADS-B
12:37PM 39.4030 -104.9010 86° East 282 325 13,100 -240 Level FlightAware ADS-B
12:37PM 39.4040 -104.8930 81° East 285 328 13,000 -720 Descending FlightAware ADS-B
12:37PM 39.4107 -104.8730 67° East 288 331 12,900 -600 Descending FlightAware ADS-B
12:37PM 39.4157 -104.8620 60° Northeast 286 329 12,800 -1,140 Descending FlightAware ADS-B
12:38PM 39.4366 -104.8170 59° Northeast 287 330 12,200 -1,140 Descending FlightAware ADS-B
12:38PM 39.4573 -104.7730 59° Northeast 282 325 11,700 -1,140 Descending FlightAware ADS-B
12:39PM 39.4780 -104.7310 57° Northeast 279 321 11,100 -900 Descending FlightAware ADS-B
12:39PM 39.4866 -104.7180 49° Northeast 280 322 11,100  Level FlightAware ADS-B
12:39PM 39.4983 -104.7070 36° Northeast 279 321 11,100 -600 Level FlightAware ADS-B
12:39PM 39.5349 -104.6790 31° Northeast 277 319 10,700 -840 Descending FlightAware ADS-B
12:40PM 39.5492 -104.6700 26° Northeast 273 314 10,500 -1,320 Descending FlightAware ADS-B
12:40PM 39.5621 -104.6650 17° North 271 312 10,200 -1,320 Descending FlightAware ADS-B
12:40PM 39.5840 -104.6630 North 270 311 9,900 -1,260 Descending FlightAware ADS-B
12:40PM 39.6040 -104.6630 360° North 272 313 9,500 -1,140 Descending FlightAware ADS-B
12:41PM 39.6312 -104.6630 360° North 263 303 9,200 -840 Descending FlightAware ADS-B
12:41PM 39.6512 -104.6630 360° North 258 297 9,000 -960 Descending FlightAware ADS-B
12:41PM 39.6701 -104.6620 North 253 291 8,700 -1,320 Descending FlightAware ADS-B
12:42PM 39.6876 -104.6620 360° North 244 281 8,300 -1,500 Descending FlightAware ADS-B
12:42PM 39.7054 -104.6620 360° North 230 265 7,900 -1,320 Descending FlightAware ADS-B
12:42PM 39.7227 -104.6620 360° North 210 242 7,600 -960 Descending FlightAware ADS-B
12:42PM 39.7373 -104.6620 360° North 192 221 7,400 -1,020 Descending FlightAware ADS-B
12:43PM 39.7501 -104.6620 360° North 177 204 7,100 -1,440 Descending FlightAware ADS-B
12:43PM 39.7589 -104.6610 North 172 198 6,800 -960 Descending FlightAware ADS-B
12:43PM 39.7745 -104.6610 360° North 158 182 6,600 -600 Descending FlightAware ADS-B
12:43PM 39.7807 -104.6610 360° North 156 180 6,500 -900 Descending FlightAware ADS-B
12:44PM 39.7887 -104.6610 360° North 153 176 6,300 -960 Descending FlightAware ADS-B
12:44PM 39.7996 -104.6610 360° North 157 181 6,100 -900 Descending FlightAware ADS-B
12:44PM 39.8082 -104.6610 360° North 153 176 5,900 -900 Descending FlightAware ADS-B
12:44PM 39.8132 -104.6610 360° North 151 174 5,800 -600 Descending FlightAware ADS-B
12:44PM 39.8163 -104.6610 360° North 150 173 5,800 -780 Level FlightAware ADS-B
12:44PM 39.8191 -104.6610 360° North 148 170 5,700 -1,500 Descending FlightAware ADS-B
12:53PM 39.8500 -104.6667 10° North  Level FlightAware Approximate
12:54PM 39.8617 -104.6732 10° North  Level Estimated
12:55PM 39.8617 -104.6732 10° North  Level Estimated